Time;durP1;ratioP1;P1;durP2;ratioP2;P2;SDS_P1;SDS_P2;PMS_P1;PMS_P2;Temp;Humidity;BMP_temperature;BMP_pressure;BME280_temperature;BME280_humidity;BME280_pressure;Samples;Min_cycle;Max_cycle;Signal;HPM_P1;HPM_P2
2022/09/29 00:02:18;;;;;;;4.60;3.70;;;;;;;3.01;100.00;94825.63;6127443;23;21005;-76
2022/09/29 00:04:44;;;;;;;3.40;3.00;;;;;;;3.15;100.00;94833.22;6102811;23;20404;-75
2022/09/29 00:07:11;;;;;;;8.97;3.57;;;;;;;3.25;100.00;94840.72;6102748;23;20430;-76
2022/09/29 00:09:38;;;;;;;5.50;3.57;;;;;;;3.40;100.00;94850.59;6127092;23;20495;-75
2022/09/29 00:12:04;;;;;;;4.03;3.63;;;;;;;3.36;100.00;94838.50;6127423;23;20403;-75
2022/09/29 00:14:31;;;;;;;4.00;3.60;;;;;;;3.25;100.00;94825.81;6129602;23;20388;-75
2022/09/29 00:16:58;;;;;;;5.53;3.60;;;;;;;3.33;100.00;94847.72;6128728;23;20577;-76
2022/09/29 00:19:26;;;;;;;4.70;3.43;;;;;;;3.46;100.00;94838.13;6129446;23;20743;-75
2022/09/29 00:21:52;;;;;;;3.60;2.73;;;;;;;3.54;100.00;94856.34;6129153;23;20428;-76
2022/09/29 00:24:19;;;;;;;4.00;3.20;;;;;;;3.35;100.00;94836.97;6154801;23;20446;-75
2022/09/29 00:26:46;;;;;;;14.00;3.70;;;;;;;3.51;100.00;94856.22;6104713;23;20411;-75
2022/09/29 00:29:13;;;;;;;10.50;3.80;;;;;;;3.51;100.00;94841.31;6104748;23;20411;-75
2022/09/29 00:31:39;;;;;;;3.13;2.60;;;;;;;3.61;100.00;94852.50;6130289;23;20969;-75
2022/09/29 00:34:06;;;;;;;6.40;3.67;;;;;;;3.66;100.00;94847.06;6157119;23;20388;-75
2022/09/29 00:36:33;;;;;;;3.67;3.30;;;;;;;3.52;100.00;94836.84;6157026;23;20383;-75
2022/09/29 00:38:59;;;;;;;8.93;4.30;;;;;;;3.64;100.00;94844.78;6130066;23;20419;-76
2022/09/29 00:41:32;;;;;;;7.83;3.97;;;;;;;3.63;100.00;94861.53;6129043;23;20442;-75
2022/09/29 00:44:13;;;;;;;4.70;4.23;;;;;;;3.45;100.00;94839.97;6128760;23;20727;-75
2022/09/29 00:46:43;;;;;;;3.50;2.87;;;;;;;3.60;100.00;94859.53;6154869;23;20400;-76
2022/09/29 00:49:23;;;;;;;3.40;3.10;;;;;;;3.28;100.00;94834.09;6128434;23;20399;-75
2022/09/29 00:52:02;;;;;;;3.83;3.33;;;;;;;3.46;100.00;94861.63;6155005;23;20365;-75
2022/09/29 00:54:36;;;;;;;6.47;3.23;;;;;;;3.30;100.00;94850.97;6154762;23;20456;-75
2022/09/29 00:57:06;;;;;;;4.60;3.83;;;;;;;3.05;100.00;94804.88;6154676;23;20457;-76
2022/09/29 00:59:45;;;;;;;4.33;3.10;;;;;;;3.11;100.00;94820.03;6104180;23;20396;-76
2022/09/29 01:02:13;;;;;;;5.63;4.20;;;;;;;3.03;100.00;94799.97;6154767;23;20748;-76
2022/09/29 01:04:40;;;;;;;3.60;3.30;;;;;;;3.16;100.00;94817.25;6128360;23;20407;-75
2022/09/29 01:07:09;;;;;;;5.47;4.60;;;;;;;3.34;100.00;94838.81;6128724;23;20909;-75
2022/09/29 01:09:39;;;;;;;8.70;3.10;;;;;;;3.59;100.00;94860.63;6154571;23;20381;-75
2022/09/29 01:12:06;;;;;;;10.20;3.80;;;;;;;3.52;100.00;94863.75;6128847;23;20376;-75
2022/09/29 01:14:35;;;;;;;6.03;3.53;;;;;;;3.68;100.00;94863.19;6128759;23;20384;-75
2022/09/29 01:17:04;;;;;;;4.93;2.53;;;;;;;3.32;100.00;94806.25;6154437;23;20412;-76
2022/09/29 01:20:03;;;;;;;5.53;3.07;;;;;;;3.71;100.00;94870.38;6128759;23;20455;-75
2022/09/29 01:22:49;;;;;;;2.93;2.30;;;;;;;3.75;100.00;94866.84;6128392;23;20431;-75
2022/09/29 01:25:33;;;;;;;5.20;2.83;;;;;;;3.70;100.00;94858.41;6128346;23;20395;-76
2022/09/29 01:28:15;;;;;;;3.00;2.80;;;;;;;3.84;100.00;94877.22;6154547;23;20499;-75
2022/09/29 01:30:48;;;;;;;4.30;2.40;;;;;;;3.86;100.00;94875.03;6103981;23;20396;-75
2022/09/29 01:33:39;;;;;;;2.57;2.40;;;;;;;3.61;100.00;94848.03;6128454;23;20411;-75
2022/09/29 01:36:47;;;;;;;3.07;2.87;;;;;;;3.74;100.00;94875.75;6128415;23;20388;-75
2022/09/29 01:39:42;;;;;;;5.47;3.80;;;;;;;3.77;100.00;94880.34;6056854;23;20404;-76
2022/09/29 01:42:18;;;;;;;3.17;2.87;;;;;;;3.50;100.00;94878.22;6127343;23;20431;-76
2022/09/29 01:44:51;;;;;;;2.30;2.07;;;;;;;3.52;100.00;94886.50;6128550;23;20372;-76
2022/09/29 01:47:23;;;;;;;6.20;3.53;;;;;;;3.65;100.00;94887.34;6154243;23;20404;-76
2022/09/29 01:49:56;;;;;;;5.40;2.50;;;;;;;3.67;100.00;94879.94;6128311;23;20368;-75
2022/09/29 01:52:28;;;;;;;7.40;3.97;;;;;;;3.88;100.00;94895.66;6154338;23;20391;-75
2022/09/29 01:55:07;;;;;;;4.03;3.70;;;;;;;3.64;100.00;94885.81;6154354;23;20373;-75
2022/09/29 01:58:03;;;;;;;6.57;4.10;;;;;;;3.51;100.00;94853.63;6127854;23;20432;-75
2022/09/29 02:00:37;;;;;;;4.20;3.53;;;;;;;3.52;100.00;94862.97;6125035;23;20754;-75
2022/09/29 02:03:25;;;;;;;4.10;3.60;;;;;;;3.43;100.00;94870.09;6127846;23;20438;-75
2022/09/29 02:05:55;;;;;;;4.70;4.23;;;;;;;3.49;100.00;94882.69;6127959;23;20392;-75
2022/09/29 02:08:36;;;;;;;10.60;5.33;;;;;;;3.16;100.00;94847.81;6103996;23;20420;-75
2022/09/29 02:11:12;;;;;;;6.70;4.53;;;;;;;3.13;100.00;94866.72;6127902;23;20391;-76
2022/09/29 02:13:54;;;;;;;7.17;4.50;;;;;;;3.13;100.00;94879.78;6127724;23;20492;-75
2022/09/29 02:16:23;;;;;;;6.40;4.63;;;;;;;2.93;100.00;94845.44;6154023;23;20368;-75
2022/09/29 02:19:00;;;;;;;10.40;5.53;;;;;;;3.08;100.00;94866.91;6103406;23;20428;-76
2022/09/29 02:21:27;;;;;;;7.50;4.90;;;;;;;3.11;100.00;94869.66;6127570;23;20466;-75
2022/09/29 02:23:54;;;;;;;4.90;4.40;;;;;;;2.98;100.00;94841.91;6127999;23;20455;-76
2022/09/29 02:26:24;;;;;;;8.80;4.17;;;;;;;2.94;100.00;94817.53;6153966;23;20384;-75
2022/09/29 02:28:51;;;;;;;8.40;6.10;;;;;;;3.02;100.00;94844.66;6153901;23;20415;-75
2022/09/29 02:31:18;;;;;;;8.17;4.93;;;;;;;3.28;100.00;94879.25;6153915;23;20858;-75
2022/09/29 02:33:45;;;;;;;5.50;5.00;;;;;;;3.06;100.00;94838.47;6127631;23;20408;-75
2022/09/29 02:36:33;;;;;;;5.27;3.77;;;;;;;3.33;100.00;94871.22;6127576;23;20403;-75
2022/09/29 02:39:06;;;;;;;5.73;4.90;;;;;;;3.39;100.00;94890.88;6153778;23;20400;-76
2022/09/29 02:41:41;;;;;;;6.20;4.33;;;;;;;3.49;100.00;94884.53;6127417;23;20447;-76
2022/09/29 02:44:45;;;;;;;5.73;5.33;;;;;;;3.55;100.00;94889.22;6103393;23;20411;-75
2022/09/29 02:47:40;;;;;;;4.23;3.83;;;;;;;3.55;100.00;94891.84;6127665;23;20419;-75
2022/09/29 02:50:20;;;;;;;4.83;4.33;;;;;;;3.60;100.00;94890.88;6128027;23;20701;-75
2022/09/29 02:53:05;;;;;;;5.83;4.17;;;;;;;3.59;100.00;94891.22;6127420;23;20478;-76
2022/09/29 02:56:10;;;;;;;6.20;4.10;;;;;;;3.62;100.00;94891.38;6127594;23;20388;-77
2022/09/29 02:58:52;;;;;;;7.70;5.03;;;;;;;3.50;100.00;94884.19;6128638;23;20758;-78
2022/09/29 03:01:19;;;;;;;4.50;4.10;;;;;;;3.18;100.00;94843.81;6131069;23;21165;-77
2022/09/29 03:03:46;;;;;;;6.40;4.00;;;;;;;2.91;100.00;94805.84;6130229;23;20928;-77
2022/09/29 03:06:14;;;;;;;6.80;5.20;;;;;;;3.50;100.00;94893.88;6130499;23;20882;-77
2022/09/29 03:08:40;;;;;;;5.77;4.63;;;;;;;3.26;100.00;94856.06;6157543;23;20825;-77
2022/09/29 03:11:07;;;;;;;6.83;3.80;;;;;;;3.07;100.00;94821.78;6131716;23;20518;-78
2022/09/29 03:13:33;;;;;;;5.53;4.63;;;;;;;3.44;100.00;94885.44;6131938;23;20491;-77
2022/09/29 03:16:00;;;;;;;5.87;5.47;;;;;;;3.03;100.00;94815.63;6107238;23;20867;-77
2022/09/29 03:18:27;;;;;;;5.00;4.53;;;;;;;3.19;100.00;94849.78;6157289;23;20416;-77
2022/09/29 03:20:54;;;;;;;4.30;3.90;;;;;;;3.11;100.00;94816.66;6131420;23;20403;-77
2022/09/29 03:23:21;;;;;;;5.23;4.57;;;;;;;3.24;100.00;94847.78;6105930;23;20518;-77
2022/09/29 03:25:48;;;;;;;4.57;4.17;;;;;;;3.39;100.00;94890.88;6156126;23;20797;-77
2022/09/29 03:28:15;;;;;;;4.90;4.50;;;;;;;3.46;100.00;94885.13;6155733;23;20498;-77
2022/09/29 03:30:42;;;;;;;4.50;4.10;;;;;;;3.23;100.00;94855.94;6130782;23;20444;-77
2022/09/29 03:33:09;;;;;;;5.03;4.53;;;;;;;3.22;100.00;94849.19;6106544;23;20814;-77
2022/09/29 03:35:35;;;;;;;4.00;3.70;;;;;;;3.64;100.00;94883.97;6130264;23;20476;-77
2022/09/29 03:38:02;;;;;;;4.43;4.13;;;;;;;3.31;100.00;94854.34;6105771;23;20428;-77
2022/09/29 03:40:29;;;;;;;4.97;4.30;;;;;;;3.45;100.00;94871.31;6157426;23;20470;-77
2022/09/29 03:42:55;;;;;;;8.57;4.70;;;;;;;3.47;100.00;94868.38;6170314;23;20426;-77
2022/09/29 03:45:22;;;;;;;7.17;5.27;;;;;;;3.42;100.00;94856.28;6121325;23;20478;-77
2022/09/29 03:47:49;;;;;;;10.83;5.57;;;;;;;3.79;100.00;94895.72;6144742;23;20487;-77
2022/09/29 03:50:15;;;;;;;8.03;5.10;;;;;;;3.64;100.00;94877.97;6145377;23;20380;-77
2022/09/29 03:52:42;;;;;;;6.90;6.13;;;;;;;3.91;100.00;94902.84;6131476;23;20387;-77
2022/09/29 03:55:09;;;;;;;6.30;5.63;;;;;;;3.54;100.00;94845.91;6128995;23;20886;-77
2022/09/29 03:57:35;;;;;;;6.93;6.13;;;;;;;3.67;100.00;94866.88;6104506;23;20426;-77
2022/09/29 04:00:03;;;;;;;9.13;5.70;;;;;;;3.71;100.00;94871.16;6129569;23;20880;-77
2022/09/29 04:02:34;;;;;;;10.67;7.10;;;;;;;3.92;100.00;94902.53;6153706;23;20412;-75
2022/09/29 04:05:01;;;;;;;7.00;6.27;;;;;;;3.73;100.00;94866.38;6127678;23;21102;-75
2022/09/29 04:07:28;;;;;;;9.53;6.93;;;;;;;3.96;100.00;94903.41;6129179;23;20408;-75
2022/09/29 04:09:54;;;;;;;8.27;6.63;;;;;;;3.65;100.00;94863.81;6129354;23;20381;-75
2022/09/29 04:12:21;;;;;;;9.40;7.70;;;;;;;3.52;100.00;94881.28;6129037;23;20391;-75
2022/09/29 04:14:50;;;;;;;10.63;6.90;;;;;;;3.44;100.00;94871.63;6155057;23;20388;-76
2022/09/29 04:17:17;;;;;;;6.90;6.20;;;;;;;3.69;100.00;94898.69;6128403;23;20448;-76
2022/09/29 04:19:44;;;;;;;13.10;8.20;;;;;;;3.67;100.00;94898.25;6129176;23;20368;-76
2022/09/29 04:22:10;;;;;;;8.53;7.30;;;;;;;3.51;100.00;94869.28;6128618;23;20961;-75
2022/09/29 04:24:37;;;;;;;8.90;7.70;;;;;;;3.63;100.00;94864.16;6128840;23;20404;-75
2022/09/29 04:27:04;;;;;;;8.70;6.20;;;;;;;3.82;100.00;94892.44;6128980;23;20498;-75
2022/09/29 04:29:30;;;;;;;7.87;6.80;;;;;;;3.74;100.00;94869.75;6128863;23;20442;-75
2022/09/29 04:31:57;;;;;;;9.20;7.53;;;;;;;3.94;100.00;94896.97;6128638;23;20502;-76
2022/09/29 04:34:24;;;;;;;9.80;7.90;;;;;;;3.82;100.00;94882.00;6104680;23;20400;-75
2022/09/29 04:36:50;;;;;;;8.37;7.53;;;;;;;3.95;100.00;94890.66;6154789;23;20904;-76
2022/09/29 04:39:17;;;;;;;11.80;9.13;;;;;;;3.87;100.00;94873.94;6128662;23;20531;-75
2022/09/29 04:41:44;;;;;;;9.10;8.13;;;;;;;3.99;100.00;94881.09;6129081;23;20395;-75
2022/09/29 04:44:11;;;;;;;8.83;7.60;;;;;;;4.09;100.00;94894.56;6128852;23;20426;-75
2022/09/29 04:46:38;;;;;;;8.30;7.00;;;;;;;3.99;100.00;94875.88;6154842;23;20388;-76
2022/09/29 04:49:05;;;;;;;12.80;7.67;;;;;;;3.64;100.00;94862.28;6155604;23;20957;-75
2022/09/29 04:51:32;;;;;;;10.10;7.83;;;;;;;3.70;100.00;94866.25;6130575;23;20408;-75
2022/09/29 04:53:58;;;;;;;14.30;8.30;;;;;;;3.55;100.00;94857.13;6156619;23;20470;-75
2022/09/29 04:56:30;;;;;;;9.20;8.20;;;;;;;3.66;100.00;94844.44;6130295;23;20523;-75
2022/09/29 04:58:57;;;;;;;9.67;7.90;;;;;;;4.10;100.00;94887.47;6109137;23;20999;-76
2022/09/29 05:01:24;;;;;;;9.80;8.27;;;;;;;4.08;100.00;94879.19;6136888;23;20387;-75
2022/09/29 05:03:52;;;;;;;10.03;7.50;;;;;;;3.76;100.00;94846.69;6105526;23;20490;-76
2022/09/29 05:06:18;;;;;;;9.97;8.00;;;;;;;4.01;100.00;94898.03;6104292;23;20981;-76
2022/09/29 05:08:45;;;;;;;10.10;8.27;;;;;;;3.82;100.00;94866.31;6128360;23;20463;-76
2022/09/29 05:11:11;;;;;;;8.73;7.43;;;;;;;3.89;100.00;94897.19;6130840;23;20870;-76
2022/09/29 05:13:38;;;;;;;20.43;7.70;;;;;;;3.54;100.00;94855.59;6128327;23;20427;-76
2022/09/29 05:16:06;;;;;;;11.77;7.53;;;;;;;3.89;100.00;94905.03;6103852;23;20399;-76
2022/09/29 05:18:33;;;;;;;20.93;8.00;;;;;;;3.38;100.00;94844.94;6128046;23;20431;-76
2022/09/29 05:21:05;;;;;;;17.93;9.87;;;;;;;3.83;100.00;94904.44;6154484;23;20410;-76
2022/09/29 05:23:51;;;;;;;14.40;9.80;;;;;;;3.72;100.00;94895.44;6128428;23;20420;-77
2022/09/29 05:26:18;;;;;;;12.70;10.10;;;;;;;3.64;100.00;94902.25;6154372;23;20475;-76
2022/09/29 05:28:46;;;;;;;33.33;10.63;;;;;;;3.78;100.00;94902.78;6128071;23;20419;-76
2022/09/29 05:31:14;;;;;;;19.50;9.17;;;;;;;3.69;100.00;94885.63;6128458;23;20515;-76
2022/09/29 05:33:40;;;;;;;32.00;11.10;;;;;;;3.77;100.00;94903.88;6154389;23;20723;-76
2022/09/29 05:36:09;;;;;;;20.13;10.87;;;;;;;3.85;100.00;94905.63;6103906;23;20399;-76
2022/09/29 05:38:37;;;;;;;39.37;10.13;;;;;;;3.70;100.00;94892.38;6154239;23;20434;-76
2022/09/29 05:41:06;;;;;;;55.33;12.43;;;;;;;3.75;100.00;94908.66;6154271;23;20388;-76
2022/09/29 05:43:33;;;;;;;29.77;9.93;;;;;;;3.51;100.00;94867.44;6103641;23;20806;-76
2022/09/29 05:46:05;;;;;;;16.53;7.60;;;;;;;3.43;100.00;94849.19;6154401;23;20479;-76
2022/09/29 05:48:32;;;;;;;24.63;9.87;;;;;;;3.27;100.00;94822.88;6127892;23;21015;-76
2022/09/29 05:51:06;;;;;;;12.50;9.27;;;;;;;3.90;100.00;94906.56;6154179;23;20388;-76
2022/09/29 05:53:33;;;;;;;11.63;7.53;;;;;;;3.63;100.00;94868.59;6103832;23;20474;-76
2022/09/29 05:56:05;;;;;;;14.17;7.83;;;;;;;3.64;100.00;94852.59;6103542;23;20875;-76
2022/09/29 05:58:32;;;;;;;9.37;7.70;;;;;;;3.78;100.00;94887.09;6128074;23;20423;-76
2022/09/29 06:01:03;;;;;;;17.50;9.60;;;;;;;3.86;100.00;94888.88;6103692;23;20406;-76
2022/09/29 06:03:32;;;;;;;9.83;8.40;;;;;;;3.83;100.00;94879.06;6127965;23;20404;-76
2022/09/29 06:06:05;;;;;;;26.27;11.40;;;;;;;3.72;100.00;94877.13;6153979;23;20704;-76
2022/09/29 06:08:32;;;;;;;18.20;10.10;;;;;;;3.82;100.00;94874.91;6154069;23;20830;-76
2022/09/29 06:11:09;;;;;;;9.40;8.30;;;;;;;3.89;100.00;94882.25;6154036;23;20423;-76
2022/09/29 06:13:38;;;;;;;20.90;10.20;;;;;;;4.02;100.00;94909.25;6103518;23;20395;-76
2022/09/29 06:16:06;;;;;;;17.27;10.50;;;;;;;4.02;100.00;94920.47;6103518;23;20402;-76
2022/09/29 06:18:32;;;;;;;19.23;10.37;;;;;;;3.90;100.00;94886.41;6153710;23;20744;-77
2022/09/29 06:21:01;;;;;;;15.73;9.97;;;;;;;3.99;100.00;94892.31;6127839;23;20411;-76
2022/09/29 06:23:28;;;;;;;17.53;11.50;;;;;;;4.22;100.00;94915.53;6103315;23;20446;-76
2022/09/29 06:25:56;;;;;;;39.13;11.73;;;;;;;4.12;100.00;94917.44;6103551;23;20403;-76
2022/09/29 06:28:23;;;;;;;43.97;13.03;;;;;;;3.88;100.00;94913.97;6153371;23;20410;-76
2022/09/29 06:30:50;;;;;;;20.00;10.63;;;;;;;3.73;100.00;94868.97;6127596;23;20418;-76
2022/09/29 06:33:17;;;;;;;16.53;10.77;;;;;;;3.91;100.00;94861.78;6127658;23;20435;-76
2022/09/29 06:38:33;;;;;;;14.60;8.53;;;;;;;4.23;100.00;94904.00;6127472;23;20914;-76
2022/09/29 06:41:00;;;;;;;21.03;10.50;;;;;;;3.75;100.00;94877.28;6127439;23;20762;-77
2022/09/29 06:43:27;;;;;;;48.20;10.43;;;;;;;3.94;100.00;94897.75;6127683;23;20416;-77
2022/09/29 06:45:53;;;;;;;33.17;10.20;;;;;;;3.74;100.00;94882.81;6128009;23;20384;-76
2022/09/29 06:48:20;;;;;;;32.57;11.37;;;;;;;3.70;100.00;94893.13;6153638;23;20412;-76
2022/09/29 06:50:47;;;;;;;30.40;11.83;;;;;;;3.96;100.00;94924.34;6128394;23;20494;-77
2022/09/29 06:53:22;;;;;;;13.13;8.83;;;;;;;4.04;100.00;94914.91;6130381;23;20403;-77
2022/09/29 06:56:03;;;;;;;42.67;11.00;;;;;;;4.18;100.00;94919.88;6154396;23;20487;-76
2022/09/29 06:58:29;;;;;;;22.60;9.20;;;;;;;4.24;100.00;94935.06;6127428;23;20423;-77
2022/09/29 07:00:59;;;;;;;16.60;10.77;;;;;;;4.27;100.00;94917.94;6127670;23;20400;-76
2022/09/29 07:03:28;;;;;;;17.60;9.27;;;;;;;4.56;100.00;94933.56;6127213;23;20969;-76
2022/09/29 07:05:55;;;;;;;17.90;8.97;;;;;;;4.55;100.00;94900.66;6127582;23;20383;-76
2022/09/29 07:08:41;;;;;;;19.30;9.00;;;;;;;4.71;100.00;94935.59;6106979;23;20415;-76
2022/09/29 07:11:09;;;;;;;16.60;10.33;;;;;;;4.71;100.00;94934.81;6127303;23;20495;-76
2022/09/29 07:13:36;;;;;;;26.37;9.90;;;;;;;4.78;100.00;94948.13;6127170;23;20396;-76
2022/09/29 07:16:05;;;;;;;9.97;8.87;;;;;;;4.72;100.00;94931.88;6127231;23;20406;-77
2022/09/29 07:18:34;;;;;;;15.67;9.10;;;;;;;4.85;100.00;94943.16;6153222;23;20430;-77
2022/09/29 07:21:01;;;;;;;20.33;8.43;;;;;;;4.56;100.00;94946.66;6153362;23;20384;-76
2022/09/29 07:23:27;;;;;;;18.53;7.60;;;;;;;4.62;100.00;94963.69;6127297;23;20514;-77
2022/09/29 07:25:54;;;;;;;11.53;8.50;;;;;;;4.57;100.00;94944.81;6127128;23;20399;-76
2022/09/29 07:28:21;;;;;;;26.93;8.17;;;;;;;4.61;100.00;94946.44;6153471;23;20495;-77
2022/09/29 07:31:00;;;;;;;13.97;7.07;;;;;;;4.53;100.00;94949.13;6127102;23;20443;-76
2022/09/29 07:33:40;;;;;;;8.43;7.37;;;;;;;4.65;100.00;94949.19;6127136;23;20451;-76
2022/09/29 07:36:07;;;;;;;10.30;7.53;;;;;;;4.63;100.00;94943.50;6102954;23;20407;-76
2022/09/29 07:38:33;;;;;;;8.27;7.47;;;;;;;5.00;100.00;94971.34;6103127;23;20420;-76
2022/09/29 07:41:11;;;;;;;8.43;7.20;;;;;;;4.98;100.00;94973.53;6155372;23;20411;-77
2022/09/29 07:43:38;;;;;;;9.30;6.17;;;;;;;4.75;100.00;94933.84;6155457;23;20439;-76
2022/09/29 07:46:06;;;;;;;8.03;6.10;;;;;;;5.00;100.00;94975.81;6105164;23;20507;-76
2022/09/29 07:48:34;;;;;;;12.20;6.23;;;;;;;5.13;100.00;94984.47;6129183;23;20426;-76
2022/09/29 07:51:04;;;;;;;14.37;5.70;;;;;;;5.07;100.00;94983.13;6129538;23;21046;-76
2022/09/29 07:53:31;;;;;;;7.43;6.37;;;;;;;4.65;100.00;94923.00;6155335;23;20467;-76
2022/09/29 07:56:11;;;;;;;7.70;6.73;;;;;;;5.13;100.00;94956.41;6155231;23;20728;-76
2022/09/29 07:58:39;;;;;;;12.10;7.10;;;;;;;5.14;100.00;94959.81;6155255;23;20400;-76
2022/09/29 08:01:09;;;;;;;8.13;7.30;;;;;;;5.27;100.00;94967.34;6104796;23;20403;-76
2022/09/29 08:03:40;;;;;;;33.07;10.33;;;;;;;5.28;100.00;94979.38;6129227;23;20415;-76
2022/09/29 08:06:09;;;;;;;14.67;10.30;;;;;;;5.33;100.00;94989.63;6129332;23;20374;-76
2022/09/29 08:08:37;;;;;;;14.83;9.30;;;;;;;5.36;100.00;94982.22;6129241;23;20404;-76
2022/09/29 08:11:08;;;;;;;13.57;8.00;;;;;;;5.30;100.00;94986.91;6128854;23;20494;-77
2022/09/29 08:13:39;;;;;;;9.83;7.90;;;;;;;5.03;100.00;94977.78;6128882;23;20399;-76
2022/09/29 08:16:10;;;;;;;9.93;7.13;;;;;;;4.96;100.00;94991.41;6129264;23;20384;-77
2022/09/29 08:18:37;;;;;;;12.13;8.03;;;;;;;4.99;100.00;94961.19;6128690;23;20944;-76
2022/09/29 08:21:04;;;;;;;14.20;7.63;;;;;;;5.38;100.00;94995.78;6128896;23;20403;-77
2022/09/29 08:23:39;;;;;;;11.10;8.43;;;;;;;5.10;100.00;94995.59;6104524;23;20960;-76
2022/09/29 08:26:08;;;;;;;10.57;7.90;;;;;;;5.23;100.00;94997.16;6128691;23;20774;-76
2022/09/29 08:28:37;;;;;;;10.67;8.07;;;;;;;5.41;100.00;95001.13;6154958;23;20755;-77
2022/09/29 08:31:06;;;;;;;14.57;9.40;;;;;;;5.32;100.00;94998.59;6154945;23;20724;-77
2022/09/29 08:33:34;;;;;;;8.77;7.80;;;;;;;4.97;100.00;94966.75;6128822;23;20406;-76
2022/09/29 08:36:13;;;;;;;10.07;8.00;;;;;;;5.48;100.00;94998.75;6129328;23;20391;-77
2022/09/29 08:38:42;;;;;;;13.20;8.20;;;;;;;5.54;100.00;94978.31;6154987;23;20403;-76
2022/09/29 08:41:24;;;;;;;12.67;9.63;;;;;;;5.69;100.00;94985.53;6129033;23;20403;-76
2022/09/29 08:43:56;;;;;;;9.10;7.87;;;;;;;5.55;100.00;94953.63;6129219;23;20499;-77
2022/09/29 08:46:32;;;;;;;12.70;8.80;;;;;;;5.55;100.00;94961.50;6128852;23;20850;-77
2022/09/29 08:49:09;;;;;;;9.57;8.67;;;;;;;5.67;100.00;94984.31;6128584;23;20451;-77
2022/09/29 08:51:47;;;;;;;9.50;8.60;;;;;;;5.82;100.00;94994.91;6129114;23;20427;-77
2022/09/29 08:54:24;;;;;;;9.03;8.03;;;;;;;5.65;100.00;94976.78;6129169;23;20392;-77
2022/09/29 08:57:06;;;;;;;7.93;6.90;;;;;;;5.72;100.00;94963.13;6107688;23;20419;-76
2022/09/29 08:59:33;;;;;;;9.80;8.53;;;;;;;6.32;100.00;94977.31;6130256;23;20867;-77
2022/09/29 09:02:43;;;;;;;10.13;7.63;;;;;;;6.18;100.00;94961.91;6130386;23;20384;-77
2022/09/29 09:05:43;;;;;;;8.97;8.03;;;;;;;6.55;100.00;94994.09;6129736;23;20431;-77
2022/09/29 09:08:13;;;;;;;8.47;7.67;;;;;;;6.71;100.00;94988.91;6130678;23;20399;-76
2022/09/29 09:10:58;;;;;;;8.27;7.53;;;;;;;6.45;100.00;94953.31;6156524;23;20867;-76
2022/09/29 09:13:35;;;;;;;9.03;6.40;;;;;;;6.94;100.00;94997.00;6105917;23;20403;-76
2022/09/29 09:16:20;;;;;;;7.37;6.67;;;;;;;7.22;100.00;95005.66;6128822;23;20396;-75
2022/09/29 09:19:22;;;;;;;6.77;6.03;;;;;;;6.94;100.00;94968.88;6128394;23;20431;-77
2022/09/29 09:22:09;;;;;;;9.13;8.23;;;;;;;7.18;100.00;95011.91;6129165;23;20695;-76
2022/09/29 09:24:46;;;;;;;8.00;7.10;;;;;;;7.11;100.00;94999.34;6128472;23;20483;-76
2022/09/29 09:27:19;;;;;;;7.60;6.90;;;;;;;6.87;100.00;94970.56;6128488;23;20475;-76
2022/09/29 09:29:47;;;;;;;8.70;7.90;;;;;;;6.75;100.00;94982.63;6154535;23;20391;-76
2022/09/29 09:32:20;;;;;;;9.13;7.77;;;;;;;7.18;100.00;95011.91;6128434;23;20897;-76
2022/09/29 09:35:01;;;;;;;13.93;12.70;;;;;;;7.40;100.00;95020.00;6154706;23;20365;-76
2022/09/29 09:37:47;;;;;;;11.47;8.23;;;;;;;7.31;100.00;94998.34;6128444;23;20430;-76
2022/09/29 09:40:19;;;;;;;9.30;8.40;;;;;;;7.44;100.00;95021.94;6128454;23;20384;-76
2022/09/29 09:42:51;;;;;;;10.27;9.27;;;;;;;7.48;100.00;95035.94;6128374;23;20396;-76
2022/09/29 09:45:36;;;;;;;9.03;8.10;;;;;;;7.01;100.00;94979.56;6128261;23;21033;-77
2022/09/29 09:48:15;;;;;;;9.70;8.70;;;;;;;7.00;100.00;95027.19;6154453;23;20408;-77
2022/09/29 09:50:49;;;;;;;12.03;8.03;;;;;;;6.88;100.00;95016.75;6128070;23;20419;-76
2022/09/29 09:53:26;;;;;;;8.43;7.60;;;;;;;7.04;100.00;95028.81;6127765;23;20388;-76
2022/09/29 09:56:25;;;;;;;10.17;8.07;;;;;;;6.95;100.00;94998.56;6103637;23;20392;-77
2022/09/29 09:59:15;;;;;;;10.00;8.67;;;;;;;7.22;100.00;95029.31;6103687;23;20420;-77
2022/09/29 10:01:42;;;;;;;8.27;7.47;;;;;;;7.08;100.00;94976.38;6128054;23;20368;-77
2022/09/29 10:04:11;;;;;;;11.17;8.50;;;;;;;7.44;100.00;95030.59;6127911;23;20420;-76
2022/09/29 10:06:39;;;;;;;10.63;8.93;;;;;;;7.21;100.00;94983.09;6128552;23;20873;-76
2022/09/29 10:09:12;;;;;;;10.80;8.17;;;;;;;7.36;100.00;95029.66;6128174;23;20415;-77
2022/09/29 10:11:41;;;;;;;9.33;8.23;;;;;;;7.66;100.00;95026.63;6103681;23;20415;-76
2022/09/29 10:14:11;;;;;;;10.07;8.50;;;;;;;7.79;100.00;95025.44;6103365;23;20891;-77
2022/09/29 10:16:56;;;;;;;12.83;9.87;;;;;;;7.92;100.00;95021.63;6103761;23;20407;-77
2022/09/29 10:19:53;;;;;;;10.30;8.67;;;;;;;7.95;100.00;95009.66;6128375;23;20787;-77
2022/09/29 10:22:20;;;;;;;12.97;7.77;;;;;;;7.61;100.00;94985.59;6154074;23;20735;-76
2022/09/29 10:24:47;;;;;;;10.73;9.33;;;;;;;7.89;100.00;95008.41;6127841;23;20430;-76
2022/09/29 10:27:19;;;;;;;9.80;8.20;;;;;;;8.04;100.00;95044.47;6127778;23;20419;-77
2022/09/29 10:29:49;;;;;;;10.67;9.27;;;;;;;8.09;100.00;95040.78;6127573;23;20400;-76
2022/09/29 10:32:35;;;;;;;14.30;8.50;;;;;;;7.94;100.00;95035.19;6127563;23;20990;-77
2022/09/29 10:35:14;;;;;;;9.87;8.90;;;;;;;7.97;100.00;95031.88;6127847;23;20399;-76
2022/09/29 10:37:45;;;;;;;10.90;8.93;;;;;;;8.15;100.00;95045.47;6127492;23;20423;-76
2022/09/29 10:40:17;;;;;;;10.37;7.70;;;;;;;8.25;100.00;95044.16;6127919;23;20507;-77
2022/09/29 10:42:45;;;;;;;17.83;13.57;;;;;;;8.45;100.00;95029.22;6127744;23;20496;-77
2022/09/29 10:45:14;;;;;;;13.20;10.07;;;;;;;8.72;100.00;95044.09;6127340;23;20703;-76
2022/09/29 10:47:45;;;;;;;24.50;17.93;;;;;;;8.73;100.00;95058.03;6127378;23;20438;-76
2022/09/29 10:50:15;;;;;;;13.70;8.73;;;;;;;8.97;100.00;95036.69;6127606;23;20411;-76
2022/09/29 10:52:52;;;;;;;9.20;7.60;;;;;;;8.97;100.00;95018.25;6153803;23;20415;-76
2022/09/29 10:55:24;;;;;;;9.60;8.60;;;;;;;9.12;100.00;95048.28;6127759;23;20380;-77
2022/09/29 10:58:18;;;;;;;11.30;9.67;;;;;;;9.17;100.00;95045.34;6153704;23;20786;-76
2022/09/29 11:01:11;;;;;;;9.27;7.77;;;;;;;9.13;100.00;95044.53;6107237;23;20404;-77
2022/09/29 11:03:45;;;;;;;10.63;8.30;;;;;;;8.59;100.00;95003.19;6153781;23;20384;-77
2022/09/29 11:06:13;;;;;;;11.40;8.47;;;;;;;8.67;100.00;95046.22;6127575;23;20399;-77
2022/09/29 11:09:00;;;;;;;12.70;9.53;;;;;;;8.68;100.00;95016.91;6154481;23;20508;-77
2022/09/29 11:11:29;;;;;;;9.63;8.63;;;;;;;8.61;100.00;94987.03;6155988;23;20455;-76
2022/09/29 11:13:56;;;;;;;12.20;9.83;;;;;;;9.41;100.00;95041.63;6155416;23;20387;-76
2022/09/29 11:16:32;;;;;;;9.40;8.23;;;;;;;9.25;100.00;95052.28;6105338;23;20503;-77
2022/09/29 11:19:14;;;;;;;12.63;8.27;;;;;;;9.08;100.00;95034.22;6128648;23;21060;-76
2022/09/29 11:21:40;;;;;;;9.60;8.03;;;;;;;9.63;100.00;95050.69;6104513;23;20429;-76
2022/09/29 11:24:23;;;;;;;10.73;9.57;;;;;;;9.77;100.00;95056.22;6127169;23;20543;-77
2022/09/29 11:26:58;;;;;;;9.67;8.30;;;;;;;9.82;100.00;95039.31;6127087;23;20839;-76
2022/09/29 11:29:27;;;;;;;9.70;8.57;;;;;;;9.76;100.00;95052.81;6127572;23;20377;-76
2022/09/29 11:31:55;;;;;;;10.87;8.60;;;;;;;9.96;100.00;95066.72;6153232;23;20874;-77
2022/09/29 11:34:47;;;;;;;11.03;8.03;;;;;;;9.87;100.00;95055.63;6127757;23;20385;-77
2022/09/29 11:37:32;;;;;;;7.87;7.07;;;;;;;9.78;100.00;95052.47;6153339;23;20400;-77
2022/09/29 11:40:27;;;;;;;9.03;8.23;;;;;;;9.67;100.00;95049.63;6104243;23;20404;-77
2022/09/29 11:42:55;;;;;;;12.83;9.33;;;;;;;9.40;100.00;95055.94;6153330;23;20451;-77
2022/09/29 11:45:35;;;;;;;11.00;8.60;;;;;;;9.50;100.00;95041.44;6127128;23;20438;-77
2022/09/29 11:48:17;;;;;;;12.00;7.80;;;;;;;9.78;100.00;95049.81;6103113;23;20542;-78
2022/09/29 11:50:50;;;;;;;10.57;7.80;;;;;;;9.84;100.00;95045.00;6102896;23;20857;-77
2022/09/29 11:53:45;;;;;;;10.23;8.07;;;;;;;9.60;100.00;95025.00;6127356;23;20392;-77
2022/09/29 11:56:27;;;;;;;10.67;8.27;;;;;;;10.02;100.00;95049.47;6103019;23;20384;-77
2022/09/29 11:59:13;;;;;;;8.27;7.50;;;;;;;10.26;100.00;95047.56;6126985;23;20518;-77